createdAt,value
2018-02-01T00:00:36.835Z,708.35
2018-02-01T00:01:37.306Z,708.31
2018-02-01T00:02:37.776Z,708.16
2018-02-01T00:03:38.245Z,708.26
2018-02-01T00:04:38.715Z,708.20
2018-02-01T00:05:39.186Z,708.20
2018-02-01T00:06:39.656Z,708.20
2018-02-01T00:07:40.128Z,708.09
2018-02-01T00:08:40.598Z,708.20
2018-02-01T00:09:41.075Z,708.19
2018-02-01T00:10:41.542Z,708.21
2018-02-01T00:11:42.011Z,708.24
2018-02-01T00:12:42.480Z,708.08
2018-02-01T00:13:42.951Z,708.10
2018-02-01T00:14:43.424Z,708.12
2018-02-01T00:15:43.892Z,707.99
2018-02-01T00:16:44.363Z,708.09
2018-02-01T00:17:44.833Z,708.24
2018-02-01T00:18:45.304Z,708.00
2018-02-01T00:19:45.773Z,708.00
2018-02-01T00:20:46.244Z,707.83
2018-02-01T00:21:46.714Z,708.00
2018-02-01T00:22:47.186Z,708.06
2018-02-01T00:23:47.657Z,708.04
2018-02-01T00:24:48.127Z,708.05
2018-02-01T00:25:48.598Z,707.99
2018-02-01T00:26:49.068Z,707.80
2018-02-01T00:27:49.537Z,707.93
2018-02-01T00:28:50.012Z,707.94
2018-02-01T00:29:50.477Z,707.80
2018-02-01T00:30:50.950Z,708.24
2018-02-01T00:31:51.420Z,708.06
2018-02-01T00:32:51.889Z,707.89
2018-02-01T00:33:52.359Z,708.05
2018-02-01T00:34:52.828Z,707.88
2018-02-01T00:35:53.300Z,707.57
2018-02-01T00:36:53.770Z,707.62
2018-02-01T00:37:54.239Z,707.78
2018-02-01T00:38:54.711Z,707.57
2018-02-01T00:39:55.182Z,707.64
2018-02-01T00:40:55.654Z,707.52
2018-02-01T00:41:56.120Z,707.55
2018-02-01T00:42:56.590Z,707.49
2018-02-01T00:43:57.061Z,707.66
2018-02-01T00:44:57.531Z,707.58
2018-02-01T00:45:58.001Z,707.53
2018-02-01T00:46:58.472Z,707.60
2018-02-01T00:47:58.943Z,707.69
2018-02-01T00:48:59.413Z,707.37
2018-02-01T00:49:59.881Z,707.51
2018-02-01T00:51:00.352Z,707.31
2018-02-01T00:52:00.823Z,707.65
2018-02-01T00:53:01.293Z,707.64
2018-02-01T00:54:01.762Z,707.42
2018-02-01T00:55:02.234Z,707.47
2018-02-01T00:56:02.701Z,707.68
2018-02-01T00:57:03.178Z,707.57
2018-02-01T00:58:03.643Z,707.43
2018-02-01T00:59:04.110Z,707.67
2018-02-01T01:00:04.580Z,707.31
2018-02-01T01:01:05.051Z,707.54
2018-02-01T01:02:05.520Z,707.56
2018-02-01T01:03:05.993Z,707.54
2018-02-01T01:04:06.461Z,707.53
2018-02-01T01:05:06.930Z,707.48
2018-02-01T01:06:07.401Z,707.47
2018-02-01T01:07:07.870Z,707.26
2018-02-01T01:08:08.341Z,707.19
2018-02-01T01:09:08.809Z,707.33
2018-02-01T01:10:09.280Z,707.07
2018-02-01T01:11:09.750Z,707.25
2018-02-01T01:12:10.220Z,707.29
2018-02-01T01:13:10.688Z,707.15
2018-02-01T01:14:11.159Z,707.33
2018-02-01T01:15:11.631Z,707.32
2018-02-01T01:16:12.098Z,707.33
2018-02-01T01:17:12.571Z,707.32
2018-02-01T01:18:13.036Z,707.33
2018-02-01T01:19:13.508Z,707.44
2018-02-01T01:20:13.978Z,707.22
2018-02-01T01:21:14.446Z,707.30
2018-02-01T01:22:14.915Z,707.43
2018-02-01T01:23:15.389Z,707.42
2018-02-01T01:24:15.856Z,707.19
2018-02-01T01:25:16.326Z,707.14
2018-02-01T01:26:16.795Z,707.30
2018-02-01T01:27:17.266Z,707.24
2018-02-01T01:28:17.735Z,707.23
2018-02-01T01:29:18.203Z,707.36
2018-02-01T01:30:18.672Z,707.26
2018-02-01T01:31:19.142Z,707.34
2018-02-01T01:32:19.614Z,707.36
2018-02-01T01:33:20.083Z,707.18
2018-02-01T01:34:20.553Z,707.33
2018-02-01T01:35:21.022Z,707.22
2018-02-01T01:36:21.493Z,707.26
2018-02-01T01:37:21.960Z,707.12
2018-02-01T01:38:22.431Z,707.18
2018-02-01T01:39:22.899Z,707.17
2018-02-01T01:40:23.368Z,707.01
2018-02-01T01:41:23.840Z,707.17
2018-02-01T01:42:24.309Z,707.05
2018-02-01T01:43:24.780Z,707.16
2018-02-01T01:44:25.250Z,707.08
2018-02-01T01:45:25.718Z,706.60
2018-02-01T01:46:26.185Z,707.05
2018-02-01T01:47:26.656Z,707.10
2018-02-01T01:48:27.126Z,706.80
2018-02-01T01:49:27.597Z,706.92
2018-02-01T01:50:28.064Z,706.91
2018-02-01T01:51:28.534Z,707.02
2018-02-01T01:52:29.003Z,706.83
2018-02-01T01:53:29.475Z,706.78
2018-02-01T01:54:29.942Z,706.82
2018-02-01T01:55:30.412Z,706.91
2018-02-01T01:56:30.881Z,706.90
2018-02-01T01:57:31.352Z,706.71
2018-02-01T01:58:31.821Z,706.67
2018-02-01T01:59:32.289Z,706.78
2018-02-01T02:00:32.763Z,706.73
2018-02-01T02:01:33.276Z,706.68
2018-02-01T02:02:33.697Z,706.70
2018-02-01T02:03:34.168Z,706.76
2018-02-01T02:04:34.636Z,706.71
2018-02-01T02:05:35.108Z,706.89
2018-02-01T02:06:35.576Z,706.78
2018-02-01T02:07:36.044Z,706.68
2018-02-01T02:08:36.514Z,706.55
2018-02-01T02:09:36.984Z,706.62
2018-02-01T02:10:37.452Z,706.67
2018-02-01T02:11:37.921Z,706.47
2018-02-01T02:12:38.390Z,706.49
2018-02-01T02:13:38.863Z,706.55
2018-02-01T02:14:39.330Z,706.42
2018-02-01T02:15:39.798Z,706.60
2018-02-01T02:16:40.269Z,706.38
2018-02-01T02:17:40.738Z,706.31
2018-02-01T02:18:41.208Z,706.58
2018-02-01T02:19:41.675Z,706.47
2018-02-01T02:20:42.145Z,706.67
2018-02-01T02:21:42.614Z,706.59
2018-02-01T02:22:43.083Z,706.63
2018-02-01T02:23:43.553Z,706.56
2018-02-01T02:24:44.021Z,706.49
2018-02-01T02:25:44.491Z,706.17
2018-02-01T02:26:44.959Z,706.21
2018-02-01T02:27:45.430Z,706.51
2018-02-01T02:28:45.901Z,706.67
2018-02-01T02:29:46.369Z,706.39
2018-02-01T02:30:46.838Z,706.36
2018-02-01T02:31:47.306Z,706.23
2018-02-01T02:32:47.777Z,706.34
2018-02-01T02:33:48.247Z,706.34
2018-02-01T02:34:48.712Z,706.10
2018-02-01T02:35:49.182Z,706.33
2018-02-01T02:36:49.652Z,706.25
2018-02-01T02:37:50.121Z,706.47
2018-02-01T02:38:50.589Z,706.01
2018-02-01T02:39:51.058Z,705.48
2018-02-01T02:40:51.526Z,706.40
2018-02-01T02:41:51.996Z,706.20
2018-02-01T02:42:52.465Z,706.19
2018-02-01T02:43:52.934Z,706.39
2018-02-01T02:44:53.404Z,706.42
2018-02-01T02:45:53.873Z,706.31
2018-02-01T02:46:54.341Z,706.17
2018-02-01T02:47:54.812Z,705.75
2018-02-01T02:48:55.279Z,705.95
2018-02-01T02:49:55.748Z,706.19
2018-02-01T02:50:56.217Z,706.06
2018-02-01T02:51:56.684Z,705.51
2018-02-01T02:52:57.155Z,705.77
2018-02-01T02:53:57.627Z,706.17
2018-02-01T02:54:58.104Z,706.20
2018-02-01T02:55:58.563Z,705.79
2018-02-01T02:56:59.031Z,705.97
2018-02-01T02:57:59.500Z,706.02
2018-02-01T02:58:59.968Z,705.85
2018-02-01T03:00:00.441Z,705.96
2018-02-01T03:01:00.906Z,705.88
2018-02-01T03:02:01.387Z,705.82
2018-02-01T03:03:01.844Z,705.55
2018-02-01T03:04:02.314Z,705.98
2018-02-01T03:05:02.784Z,705.81
2018-02-01T03:06:03.251Z,706.00
2018-02-01T03:07:03.722Z,705.97
2018-02-01T03:08:04.188Z,705.96
2018-02-01T03:09:04.661Z,705.73
2018-02-01T03:10:05.127Z,705.92
2018-02-01T03:11:05.596Z,705.64
2018-02-01T03:12:06.064Z,705.72
2018-02-01T03:13:06.535Z,706.02
2018-02-01T03:14:07.002Z,705.84
2018-02-01T03:15:07.471Z,705.95
2018-02-01T03:16:07.940Z,705.80
2018-02-01T03:17:08.410Z,705.99
2018-02-01T03:18:08.885Z,705.88
2018-02-01T03:19:09.354Z,705.91
2018-02-01T03:21:10.288Z,705.85
2018-02-01T03:22:10.760Z,706.10
2018-02-01T03:23:11.230Z,705.87
2018-02-01T03:24:11.697Z,705.77
2018-02-01T03:26:23.967Z,705.70
2018-02-01T03:27:13.106Z,705.90
2018-02-01T03:28:13.566Z,705.88
2018-02-01T03:29:14.040Z,705.74
2018-02-01T03:30:14.511Z,705.42
2018-02-01T03:32:15.441Z,705.59
2018-02-01T03:33:15.916Z,705.82
2018-02-01T03:34:16.387Z,705.86
2018-02-01T03:35:16.853Z,705.99
2018-02-01T03:36:17.326Z,705.99
2018-02-01T03:37:17.791Z,705.52
2018-02-01T03:39:18.722Z,705.90
2018-02-01T03:40:19.197Z,705.84
2018-02-01T03:41:19.667Z,705.56
2018-02-01T03:42:20.135Z,705.85
2018-02-01T03:43:20.605Z,705.95
2018-02-01T03:44:21.076Z,705.87
2018-02-01T03:45:21.543Z,705.44
2018-02-01T03:46:22.007Z,705.94
2018-02-01T03:47:22.481Z,705.68
2018-02-01T03:49:23.418Z,705.73
2018-02-01T03:50:23.880Z,705.62
2018-02-01T03:51:24.353Z,705.52
2018-02-01T03:53:25.291Z,705.81
2018-02-01T03:54:25.762Z,705.64
2018-02-01T03:55:26.229Z,705.51
2018-02-01T03:56:26.700Z,705.26
2018-02-01T03:57:27.163Z,705.80
2018-02-01T03:58:27.637Z,705.68
2018-02-01T03:59:28.104Z,705.43
2018-02-01T04:00:28.572Z,705.42
2018-02-01T04:01:29.044Z,705.40
2018-02-01T04:02:29.512Z,705.33
2018-02-01T04:03:29.982Z,705.35
2018-02-01T04:04:30.449Z,705.44
2018-02-01T04:05:30.915Z,705.78
2018-02-01T04:06:31.386Z,705.45
2018-02-01T04:07:31.857Z,705.32
2018-02-01T04:08:32.325Z,705.47
2018-02-01T04:09:32.787Z,705.42
2018-02-01T04:10:33.263Z,705.59
2018-02-01T04:11:33.731Z,705.52
2018-02-01T04:12:34.200Z,705.38
2018-02-01T04:13:34.669Z,705.24
2018-02-01T04:14:35.138Z,705.52
2018-02-01T04:16:36.073Z,705.54
2018-02-01T04:17:36.543Z,705.50
2018-02-01T04:18:37.011Z,705.53
2018-02-01T04:19:37.479Z,705.46
2018-02-01T04:20:37.947Z,705.39
2018-02-01T04:21:49.997Z,705.27
2018-02-01T04:22:38.887Z,705.45
2018-02-01T04:23:39.355Z,705.37
2018-02-01T04:24:39.824Z,705.47
2018-02-01T04:25:40.295Z,705.47
2018-02-01T04:26:40.762Z,705.13
2018-02-01T04:27:41.225Z,705.43
2018-02-01T04:30:42.636Z,705.23
2018-02-01T04:31:43.102Z,705.11
2018-02-01T04:33:44.041Z,705.29
2018-02-01T04:34:44.504Z,705.41
2018-02-01T04:35:44.977Z,705.33
2018-02-01T04:36:57.081Z,705.30
2018-02-01T04:37:45.913Z,705.35
2018-02-01T04:38:46.382Z,705.32
2018-02-01T04:40:47.319Z,705.36
2018-02-01T04:41:47.788Z,705.21
2018-02-01T04:42:48.258Z,705.08
2018-02-01T04:43:48.723Z,704.85
2018-02-01T04:44:49.192Z,705.16
2018-02-01T04:45:49.655Z,704.99
2018-02-01T04:46:50.129Z,705.20
2018-02-01T04:47:50.598Z,705.03
2018-02-01T04:48:51.066Z,705.16
2018-02-01T04:49:51.534Z,705.23
2018-02-01T04:51:52.469Z,705.16
2018-02-01T04:52:52.938Z,705.19
2018-02-01T04:53:53.408Z,705.05
2018-02-01T04:54:53.877Z,704.95
2018-02-01T04:55:54.342Z,704.92
2018-02-01T04:56:54.813Z,705.02
2018-02-01T04:57:55.280Z,705.23
2018-02-01T04:58:55.748Z,705.19
2018-02-01T04:59:56.214Z,705.41
2018-02-01T05:02:57.621Z,704.91
2018-02-01T05:03:58.089Z,704.69
2018-02-01T05:04:58.558Z,705.12
2018-02-01T05:05:59.020Z,705.25
2018-02-01T05:07:11.073Z,704.84
2018-02-01T05:07:59.960Z,705.13
2018-02-01T05:10:00.893Z,704.95
2018-02-01T05:11:01.367Z,704.87
2018-02-01T05:12:14.076Z,705.01
2018-02-01T05:13:02.302Z,705.05
2018-02-01T05:14:02.770Z,705.11
2018-02-01T05:15:03.239Z,705.09
2018-02-01T05:16:03.710Z,704.78
2018-02-01T05:17:04.169Z,704.90
2018-02-01T05:18:04.642Z,704.78
2018-02-01T05:19:05.111Z,705.01
2018-02-01T05:20:05.579Z,705.29
2018-02-01T05:21:06.041Z,705.09
2018-02-01T05:24:07.455Z,704.88
2018-02-01T05:26:08.387Z,705.03
2018-02-01T05:27:08.851Z,704.87
2018-02-01T05:28:09.324Z,704.96
2018-02-01T05:29:09.790Z,705.00
2018-02-01T05:30:10.259Z,704.78
2018-02-01T05:31:10.720Z,704.65
2018-02-01T05:32:11.193Z,704.79
2018-02-01T05:33:11.662Z,704.74
2018-02-01T05:34:12.133Z,704.67
2018-02-01T05:35:12.598Z,704.98
2018-02-01T05:36:13.065Z,704.75
2018-02-01T05:37:13.536Z,704.73
2018-02-01T05:38:13.996Z,704.88
2018-02-01T05:39:14.470Z,704.97
2018-02-01T05:40:14.935Z,704.90
2018-02-01T05:41:15.405Z,704.99
2018-02-01T05:42:15.874Z,704.75
2018-02-01T05:43:16.341Z,704.77
2018-02-01T05:44:16.808Z,704.85
2018-02-01T05:46:17.746Z,704.72
2018-02-01T05:49:19.148Z,704.77
2018-02-01T05:50:19.617Z,704.78
2018-02-01T05:51:20.080Z,704.90
2018-02-01T05:52:20.551Z,704.90
2018-02-01T05:54:21.491Z,704.89
2018-02-01T05:55:21.950Z,704.90
2018-02-01T05:56:22.425Z,704.79
2018-02-01T05:57:22.893Z,704.85
2018-02-01T05:59:23.827Z,704.91
2018-02-01T06:00:24.297Z,705.01
2018-02-01T06:02:25.231Z,704.81
2018-02-01T06:03:25.694Z,704.81
2018-02-01T06:04:26.164Z,704.96
2018-02-01T06:05:26.633Z,704.75
2018-02-01T06:06:27.098Z,704.73
2018-02-01T06:07:27.570Z,704.76
2018-02-01T06:08:28.039Z,704.90
2018-02-01T06:09:28.506Z,704.87
2018-02-01T06:10:28.968Z,704.82
2018-02-01T06:11:29.442Z,704.78
2018-02-01T06:12:29.908Z,704.89
2018-02-01T06:13:30.380Z,704.86
2018-02-01T06:14:30.844Z,704.90
2018-02-01T06:15:31.314Z,704.78
2018-02-01T06:16:31.779Z,704.87
2018-02-01T06:17:32.244Z,704.70
2018-02-01T06:19:33.234Z,704.65
2018-02-01T06:20:33.649Z,704.70
2018-02-01T06:21:34.118Z,704.90
2018-02-01T06:22:34.586Z,704.99
2018-02-01T06:23:35.054Z,704.71
2018-02-01T06:24:35.521Z,704.74
2018-02-01T06:25:35.988Z,704.73
2018-02-01T06:27:36.928Z,704.69
2018-02-01T06:28:37.390Z,704.68
2018-02-01T06:30:38.321Z,704.65
2018-02-01T06:31:38.794Z,704.77
2018-02-01T06:32:39.262Z,704.84
2018-02-01T06:33:39.730Z,704.69
2018-02-01T06:35:40.668Z,704.60
2018-02-01T06:36:41.127Z,704.68
2018-02-01T06:37:41.600Z,704.71
2018-02-01T06:38:42.067Z,704.73
2018-02-01T06:40:43.002Z,704.60
2018-02-01T06:41:43.470Z,704.77
2018-02-01T06:42:43.937Z,704.49
2018-02-01T06:43:44.400Z,704.71
2018-02-01T06:44:44.871Z,704.60
2018-02-01T06:45:45.341Z,704.60
2018-02-01T06:46:45.807Z,704.64
2018-02-01T06:47:46.274Z,704.52
2018-02-01T06:48:46.740Z,704.54
2018-02-01T06:49:47.209Z,704.51
2018-02-01T06:50:47.677Z,704.47
2018-02-01T06:51:48.144Z,704.51
2018-02-01T06:52:48.613Z,704.63
2018-02-01T06:53:49.080Z,704.60
2018-02-01T06:54:49.541Z,704.50
2018-02-01T06:55:50.014Z,704.56
2018-02-01T06:56:50.481Z,704.55
2018-02-01T06:57:50.948Z,704.50
2018-02-01T06:58:51.417Z,704.54
2018-02-01T06:59:51.885Z,704.32
2018-02-01T07:00:52.350Z,704.45
2018-02-01T07:01:52.819Z,704.61
2018-02-01T07:02:53.286Z,704.47
2018-02-01T07:03:53.754Z,704.45
2018-02-01T07:04:54.222Z,704.52
2018-02-01T07:05:54.689Z,704.43
2018-02-01T07:06:55.156Z,704.56
2018-02-01T07:07:55.619Z,704.50
2018-02-01T07:08:56.094Z,704.56
2018-02-01T07:09:56.559Z,704.52
2018-02-01T07:11:57.492Z,704.51
2018-02-01T07:16:11.197Z,704.56
2018-02-01T07:16:59.831Z,704.61
2018-02-01T07:18:00.301Z,704.62
2018-02-01T07:19:00.765Z,704.55
2018-02-01T07:20:01.238Z,704.63
2018-02-01T07:21:01.695Z,704.57
2018-02-01T07:22:02.169Z,704.55
2018-02-01T07:24:03.103Z,704.52
2018-02-01T07:25:03.565Z,704.55
2018-02-01T07:26:04.038Z,704.59
2018-02-01T07:27:04.506Z,704.59
2018-02-01T07:28:04.974Z,704.59
2018-02-01T07:29:05.440Z,704.47
2018-02-01T07:30:05.907Z,704.62
2018-02-01T07:31:06.371Z,704.66
2018-02-01T07:32:06.845Z,704.60
2018-02-01T07:33:07.310Z,704.62
2018-02-01T07:34:07.775Z,704.58
2018-02-01T07:35:08.245Z,704.44
2018-02-01T07:36:08.714Z,704.59
2018-02-01T07:37:09.180Z,704.55
2018-02-01T07:38:09.648Z,704.62
2018-02-01T07:39:10.115Z,704.58
2018-02-01T07:40:10.578Z,704.50
2018-02-01T07:41:11.049Z,704.51
2018-02-01T07:42:11.521Z,704.46
2018-02-01T07:43:11.983Z,704.46
2018-02-01T07:44:12.448Z,704.39
2018-02-01T07:45:12.914Z,704.52
2018-02-01T07:46:13.389Z,704.50
2018-02-01T07:47:13.854Z,704.45
2018-02-01T07:48:14.322Z,704.39
2018-02-01T07:49:14.782Z,704.52
2018-02-01T07:50:15.257Z,704.35
2018-02-01T07:51:15.726Z,704.40
2018-02-01T07:53:16.660Z,704.35
2018-02-01T07:54:17.128Z,704.44
2018-02-01T07:55:17.594Z,704.44
2018-02-01T07:56:18.064Z,704.50
2018-02-01T07:57:18.529Z,704.48
2018-02-01T07:58:19.017Z,704.47
2018-02-01T07:59:19.466Z,704.40
2018-02-01T08:00:19.932Z,704.37
2018-02-01T08:01:20.395Z,704.48
2018-02-01T08:02:20.865Z,704.39
2018-02-01T08:03:21.331Z,704.44
2018-02-01T08:04:21.802Z,704.49
2018-02-01T08:05:22.270Z,704.43
2018-02-01T08:06:22.735Z,704.46
2018-02-01T08:07:23.205Z,704.44
2018-02-01T08:08:23.671Z,704.48
2018-02-01T08:09:24.138Z,704.46
2018-02-01T08:10:24.601Z,704.43
2018-02-01T08:12:25.541Z,704.41
2018-02-01T08:13:26.009Z,704.38
2018-02-01T08:14:26.471Z,704.43
2018-02-01T08:15:26.943Z,704.43
2018-02-01T08:16:27.412Z,704.43
2018-02-01T08:18:28.346Z,704.32
2018-02-01T08:19:28.815Z,704.44
2018-02-01T08:20:29.282Z,704.44
2018-02-01T08:21:29.744Z,704.35
2018-02-01T08:22:30.216Z,704.42
2018-02-01T08:23:30.684Z,704.31
2018-02-01T08:25:31.616Z,704.37
2018-02-01T08:26:32.088Z,704.28
2018-02-01T08:27:32.554Z,704.42
2018-02-01T08:28:33.023Z,704.30
2018-02-01T08:29:33.490Z,704.38
2018-02-01T08:30:33.960Z,704.44
2018-02-01T08:31:34.430Z,704.28
2018-02-01T08:32:34.894Z,704.27
2018-02-01T08:33:35.362Z,704.40
2018-02-01T08:34:35.828Z,704.36
2018-02-01T08:35:36.298Z,704.33
2018-02-01T08:36:36.766Z,704.43
2018-02-01T08:37:37.228Z,704.38
2018-02-01T08:38:37.703Z,704.32
2018-02-01T08:39:38.168Z,704.33
2018-02-01T08:40:38.638Z,704.33
2018-02-01T08:41:39.105Z,704.39
2018-02-01T08:42:39.573Z,704.37
2018-02-01T08:43:40.040Z,704.20
2018-02-01T08:44:40.512Z,704.39
2018-02-01T08:45:40.975Z,704.39
2018-02-01T08:46:41.437Z,704.31
2018-02-01T08:47:41.912Z,704.37
2018-02-01T08:48:42.381Z,704.29
2018-02-01T08:49:42.848Z,704.38
2018-02-01T08:50:43.315Z,704.42
2018-02-01T08:52:44.253Z,704.25
2018-02-01T08:53:44.716Z,704.26
2018-02-01T08:54:45.188Z,704.36
2018-02-01T08:55:45.656Z,704.29
2018-02-01T08:56:46.123Z,704.36
2018-02-01T08:57:46.592Z,704.32
2018-02-01T08:58:47.055Z,704.41
2018-02-01T08:59:47.530Z,704.38
2018-02-01T09:00:47.999Z,704.39
2018-02-01T09:01:48.465Z,704.42
2018-02-01T09:02:48.934Z,704.35
2018-02-01T09:03:49.401Z,704.37
2018-02-01T09:04:49.873Z,704.44
2018-02-01T09:05:50.333Z,704.41
2018-02-01T09:06:50.806Z,704.43
2018-02-01T09:07:51.276Z,704.47
2018-02-01T09:08:51.736Z,704.35
2018-02-01T09:09:52.209Z,704.45
2018-02-01T09:10:52.677Z,704.47
2018-02-01T09:11:53.148Z,704.49
2018-02-01T09:12:53.610Z,704.49
2018-02-01T09:13:54.084Z,704.39
2018-02-01T09:14:54.553Z,704.56
2018-02-01T09:15:55.020Z,704.54
2018-02-01T09:16:55.489Z,704.45
2018-02-01T09:17:55.952Z,704.45
2018-02-01T09:18:56.426Z,704.49
2018-02-01T09:19:56.894Z,704.49
2018-02-01T09:20:57.369Z,704.52
2018-02-01T09:21:57.831Z,704.55
2018-02-01T09:22:58.302Z,704.54
2018-02-01T09:23:58.769Z,704.52
2018-02-01T09:24:59.237Z,704.52
2018-02-01T09:27:00.171Z,704.52
2018-02-01T09:28:00.643Z,704.51
2018-02-01T09:29:01.112Z,704.56
2018-02-01T09:30:01.579Z,704.56
2018-02-01T09:31:02.042Z,704.54
2018-02-01T09:32:02.518Z,704.57
2018-02-01T09:34:03.453Z,704.68
2018-02-01T09:35:03.922Z,704.57
2018-02-01T09:36:04.393Z,704.59
2018-02-01T09:37:04.857Z,704.51
2018-02-01T09:38:05.330Z,704.63
2018-02-01T09:39:05.801Z,704.67
2018-02-01T09:40:06.268Z,704.65
2018-02-01T09:41:06.731Z,704.64
2018-02-01T09:42:07.203Z,704.57
2018-02-01T09:43:07.721Z,704.57
2018-02-01T09:44:08.140Z,704.57
2018-02-01T09:45:08.609Z,704.58
2018-02-01T09:46:09.077Z,704.53
2018-02-01T09:47:09.546Z,704.53
2018-02-01T09:48:10.010Z,704.60
2018-02-01T09:50:10.952Z,704.56
2018-02-01T09:52:11.885Z,704.57
2018-02-01T09:53:12.365Z,704.57
2018-02-01T09:54:12.828Z,704.55
2018-02-01T09:55:13.298Z,704.61
2018-02-01T09:56:13.762Z,704.62
2018-02-01T09:57:14.238Z,704.52
2018-02-01T09:58:14.706Z,704.54
2018-02-01T09:59:15.174Z,704.53
2018-02-01T10:00:15.642Z,704.49
2018-02-01T10:01:16.111Z,704.46
2018-02-01T10:02:16.581Z,704.50
2018-02-01T10:03:17.049Z,704.44
2018-02-01T10:04:17.518Z,704.47
2018-02-01T10:05:17.989Z,704.47
2018-02-01T10:06:18.458Z,704.44
2018-02-01T10:07:18.923Z,704.50
2018-02-01T10:08:19.395Z,704.50
2018-02-01T10:09:19.866Z,704.45
2018-02-01T10:10:20.335Z,704.46
2018-02-01T10:11:20.803Z,704.47
2018-02-01T10:12:21.273Z,704.37
2018-02-01T10:13:21.746Z,704.37
2018-02-01T10:14:22.203Z,704.42
2018-02-01T10:15:22.679Z,704.35
2018-02-01T10:16:23.149Z,704.35
2018-02-01T10:17:23.619Z,704.37
2018-02-01T10:18:24.081Z,704.32
2018-02-01T10:19:24.558Z,704.40
2018-02-01T10:20:25.027Z,704.35
2018-02-01T10:21:25.496Z,704.41
2018-02-01T10:22:25.964Z,704.39
2018-02-01T10:23:26.434Z,704.33
2018-02-01T10:24:26.904Z,704.34
2018-02-01T10:25:27.369Z,704.33
2018-02-01T10:27:28.311Z,704.43
2018-02-01T10:28:28.782Z,704.44
2018-02-01T10:29:29.246Z,704.46
2018-02-01T10:31:30.194Z,704.45
2018-02-01T10:32:30.659Z,704.42
2018-02-01T10:33:31.131Z,704.40
2018-02-01T10:34:31.598Z,704.35
2018-02-01T10:35:32.068Z,704.31
2018-02-01T10:36:32.534Z,704.30
2018-02-01T10:37:33.008Z,704.24
2018-02-01T10:38:33.477Z,704.20
2018-02-01T10:39:33.947Z,704.23
2018-02-01T10:40:34.417Z,704.19
2018-02-01T10:41:34.887Z,704.26
2018-02-01T10:42:35.356Z,704.27
2018-02-01T10:43:35.825Z,704.25
2018-02-01T10:44:36.293Z,704.13
2018-02-01T10:45:36.765Z,704.05
2018-02-01T10:46:37.233Z,704.17
2018-02-01T10:47:37.702Z,704.11
2018-02-01T10:48:38.201Z,704.04
2018-02-01T10:49:38.645Z,704.08
2018-02-01T10:51:39.587Z,704.12
2018-02-01T10:52:40.053Z,704.12
2018-02-01T10:53:40.522Z,704.08
2018-02-01T10:54:40.986Z,703.98
2018-02-01T10:55:41.460Z,703.98
2018-02-01T10:56:41.931Z,704.00
2018-02-01T10:57:42.402Z,703.95
2018-02-01T10:58:42.922Z,704.00
2018-02-01T10:59:43.339Z,704.04
2018-02-01T11:00:43.810Z,703.99
2018-02-01T11:01:44.276Z,704.04
2018-02-01T11:02:44.749Z,704.02
2018-02-01T11:04:45.690Z,703.85
2018-02-01T11:05:46.159Z,703.92
2018-02-01T11:07:47.097Z,703.95
2018-02-01T11:08:59.403Z,703.89
2018-02-01T11:09:48.042Z,703.87
2018-02-01T11:10:48.513Z,703.84
2018-02-01T11:13:49.921Z,703.74
2018-02-01T11:14:50.383Z,703.75
2018-02-01T11:15:50.860Z,703.63
2018-02-01T11:16:51.330Z,703.67
2018-02-01T11:17:51.800Z,703.64
2018-02-01T11:19:04.411Z,703.70
2018-02-01T11:19:52.741Z,703.76
2018-02-01T11:20:53.210Z,703.79
2018-02-01T11:21:53.680Z,703.69
2018-02-01T11:22:54.144Z,703.82
2018-02-01T11:23:54.621Z,703.64
2018-02-01T11:25:55.662Z,703.78
2018-02-01T11:26:56.024Z,703.81
2018-02-01T11:27:56.499Z,703.53
2018-02-01T11:28:56.970Z,703.58
2018-02-01T11:30:57.909Z,703.71
2018-02-01T11:31:58.385Z,703.57
2018-02-01T11:32:58.849Z,703.52
2018-02-01T11:33:59.320Z,703.33
2018-02-01T11:34:59.795Z,703.34
2018-02-01T11:36:00.291Z,703.43
2018-02-01T11:37:00.729Z,703.42
2018-02-01T11:38:01.199Z,703.56
2018-02-01T11:39:01.665Z,703.63
2018-02-01T11:40:02.138Z,703.47
2018-02-01T11:41:02.611Z,703.29
2018-02-01T11:43:03.545Z,703.33
2018-02-01T11:44:04.019Z,703.31
2018-02-01T11:45:04.489Z,702.93
2018-02-01T11:46:04.961Z,702.94
2018-02-01T11:47:05.429Z,703.26
2018-02-01T11:48:05.898Z,703.11
2018-02-01T11:49:06.368Z,703.24
2018-02-01T11:50:06.833Z,703.21
2018-02-01T11:51:07.347Z,703.30
2018-02-01T11:52:07.781Z,703.23
2018-02-01T11:53:08.247Z,703.52
2018-02-01T11:54:08.713Z,703.42
2018-02-01T11:55:09.198Z,703.40
2018-02-01T11:56:09.657Z,703.37
2018-02-01T11:57:10.127Z,703.24
2018-02-01T11:58:10.600Z,703.16
2018-02-01T12:00:11.541Z,702.92
2018-02-01T12:01:12.008Z,703.28
2018-02-01T12:02:12.480Z,703.10
2018-02-01T12:03:12.950Z,703.27
2018-02-01T12:04:13.411Z,703.23
2018-02-01T12:06:14.358Z,702.94
2018-02-01T12:08:15.298Z,703.31
2018-02-01T12:09:15.769Z,703.31
2018-02-01T12:10:16.440Z,703.01
2018-02-01T12:12:17.178Z,702.68
2018-02-01T12:13:17.651Z,702.73
2018-02-01T12:14:18.118Z,703.07
2018-02-01T12:15:18.581Z,702.89
2018-02-01T12:16:19.059Z,702.92
2018-02-01T12:17:19.529Z,703.28
2018-02-01T12:19:20.469Z,702.77
2018-02-01T12:20:32.473Z,703.10
2018-02-01T12:21:21.404Z,702.73
2018-02-01T12:22:21.880Z,703.06
2018-02-01T12:24:22.817Z,703.09
2018-02-01T12:25:23.281Z,702.95
2018-02-01T12:26:23.758Z,703.14
2018-02-01T12:27:24.227Z,702.64
2018-02-01T12:28:24.697Z,703.13
2018-02-01T12:29:25.173Z,702.95
2018-02-01T12:30:25.638Z,702.94
2018-02-01T12:31:26.108Z,702.91
2018-02-01T12:32:26.579Z,702.88
2018-02-01T12:33:27.249Z,703.12
2018-02-01T12:34:27.520Z,702.92
2018-02-01T12:36:28.458Z,702.75
2018-02-01T12:37:28.928Z,702.68
2018-02-01T12:38:29.393Z,702.70
2018-02-01T12:39:29.868Z,702.90
2018-02-01T12:40:30.336Z,702.78
2018-02-01T12:41:30.810Z,702.55
2018-02-01T12:42:31.281Z,702.81
2018-02-01T12:43:31.748Z,702.94
2018-02-01T12:44:32.218Z,702.79
2018-02-01T12:47:33.632Z,702.92
2018-02-01T12:48:34.093Z,702.85
2018-02-01T12:49:34.569Z,702.58
2018-02-01T12:50:35.039Z,702.55
2018-02-01T12:51:35.513Z,702.94
2018-02-01T12:52:35.982Z,702.62
2018-02-01T12:53:36.472Z,702.60
2018-02-01T12:54:36.920Z,702.80
2018-02-01T12:55:37.388Z,702.86
2018-02-01T12:56:37.858Z,702.79
2018-02-01T12:57:38.329Z,702.81
2018-02-01T12:58:38.793Z,702.72
2018-02-01T12:59:39.268Z,702.84
2018-02-01T13:00:39.738Z,702.79
2018-02-01T13:01:40.208Z,702.80
2018-02-01T13:02:40.681Z,702.51
2018-02-01T13:04:41.613Z,702.62
2018-02-01T13:05:42.294Z,702.57
2018-02-01T13:06:42.558Z,702.60
2018-02-01T13:07:43.027Z,702.71
2018-02-01T13:08:43.499Z,702.81
2018-02-01T13:09:43.970Z,702.77
2018-02-01T13:10:44.438Z,702.66
2018-02-01T13:11:44.903Z,702.56
2018-02-01T13:12:45.384Z,702.65
2018-02-01T13:13:45.848Z,702.68
2018-02-01T13:14:46.317Z,702.55
2018-02-01T13:15:46.780Z,702.85
2018-02-01T13:16:47.257Z,702.82
2018-02-01T13:17:47.726Z,702.89
2018-02-01T13:18:48.205Z,702.77
2018-02-01T13:19:48.671Z,702.93
2018-02-01T13:21:49.604Z,702.67
2018-02-01T13:22:50.079Z,702.83
2018-02-01T13:23:50.546Z,702.68
2018-02-01T13:24:51.015Z,702.69
2018-02-01T13:25:51.489Z,702.56
2018-02-01T13:26:51.956Z,702.67
2018-02-01T13:27:52.421Z,702.85
2018-02-01T13:28:52.896Z,702.88
2018-02-01T13:29:53.365Z,702.84
2018-02-01T13:30:53.840Z,702.45
2018-02-01T13:31:54.298Z,702.32
2018-02-01T13:32:54.774Z,702.54
2018-02-01T13:33:55.244Z,702.67
2018-02-01T13:34:55.713Z,702.60
2018-02-01T13:36:56.654Z,702.59
2018-02-01T13:37:57.122Z,702.72
2018-02-01T13:38:57.587Z,702.80
2018-02-01T13:40:58.532Z,703.06